ZGKL

Guilin Liangjiang International Airport

Guilin City, China
TAF ZGKL 141508Z 1418/1518 05003MPS 5000 BR SCT026 OVC040 TX10/1507Z TN06/1422Z
Issued Valid From Valid To
Dec-14 @ 15:08 UTC
(8 hours ago)
Dec-14 @ 18:00 UTC
(5 hours ago)
Dec-15 @ 18:00 UTC
(in 19 hours)
Dec-14 @ 18:00 to Dec-15 @ 18:00
TAF ZGKL 141508Z 1418/1518 05003MPS 5000 BR SCT026 OVC040 TX10/1507Z TN06/1422Z
Wind Visibility Clouds Conditions
50° at 6 knots 5,005 meters
  • Scattered at 2,600' AGL
  • Overcast at 4,000' AGL
  • Mist
TAF ZGKL 141508Z 1418/1518 05003MPS 5000 BR SCT026 OVC040 TX10/1507Z TN06/1422Z
Issued Dec-14 @ 15:08 UTC
(8 hours ago)
Valid From Dec-14 @ 18:00 UTC
(5 hours ago)
Valid To Dec-15 @ 18:00 UTC
(in 19 hours)
Dec-14 @ 18:00 - Dec-15 @ 18:00
Wind Visibility
50° at 6 knots 5,005 meters
Clouds
  • Scattered at 2,600' AGL
  • Overcast at 4,000' AGL
Conditions
  • Mist